Ash Fork, Arizona
Current Conditions -  °F | °C
As of 2:53 PM on Wednesday 22 Oct 2014 (Local Time) from KPRC Reporting Station
Scattered Clouds Scattered Clouds  
Wind Chill: 24°   Ceiling: Unl
Heat Index: 24°   Visibility: 10mi
Dew Point:   Wind: 6mph
Humidity: 25%   Direction: NA
Pressure: 30.13"   Gusts: NA
Location:  35.23°N, 112.49°W
Report Text: KPRC 222153Z VRB05KT 10SM SCT090 24/03 A3013 RMK AO2 SLP140 T02440033
Loading
Personal Weather Stations






























Interactive Weather Map
Tropical Storm Tracking
New forecast layout! Learn more

10-Day Weather Forecast

Advertisements
Track Severe Weather on mobile